Time;durP1;ratioP1;P1;durP2;ratioP2;P2;SDS_P1;SDS_P2;PMS_P1;PMS_P2;Temp;Humidity;BMP_temperature;BMP_pressure;BME280_temperature;BME280_humidity;BME280_pressure;Samples;Min_cycle;Max_cycle;Signal;HPM_P1;HPM_P2
2023/12/14 00:00:22;;;;;;;46.17;26.95;;;;;;;-142.57;100.00;56770.03;4993643;28;20022;-83
2023/12/14 00:02:48;;;;;;;45.60;26.98;;;;;;;-142.57;100.00;56763.97;4976026;28;20101;-82
2023/12/14 00:05:14;;;;;;;54.55;30.38;;;;;;;-142.57;100.00;56681.09;4992777;28;20042;-82
2023/12/14 00:07:39;;;;;;;52.40;29.42;;;;;;;-142.57;100.00;56776.09;4992568;28;20445;-79
2023/12/14 00:10:05;;;;;;;53.55;30.70;;;;;;;-142.57;100.00;56776.09;4992106;28;20046;-82
2023/12/14 00:12:31;;;;;;;51.58;30.30;;;;;;;-142.57;100.00;56743.75;4992452;28;20027;-81
2023/12/14 00:14:57;;;;;;;56.53;31.95;;;;;;;-142.57;100.00;56745.78;4992819;28;20038;-82
2023/12/14 00:17:22;;;;;;;54.53;30.52;;;;;;;-142.57;100.00;56776.09;4992936;28;20066;-82
2023/12/14 00:19:48;;;;;;;65.10;33.03;;;;;;;-142.57;100.00;56735.69;4974978;28;20040;-84
2023/12/14 00:22:14;;;;;;;63.25;33.13;;;;;;;-142.57;100.00;56727.59;4992985;28;20038;-83
2023/12/14 00:24:40;;;;;;;59.55;31.42;;;;;;;-142.57;100.00;56796.31;4992729;28;20033;-84
2023/12/14 00:27:05;;;;;;;55.97;29.85;;;;;;;-142.57;100.00;56776.09;4955308;28;20033;-80
2023/12/14 00:29:31;;;;;;;53.38;30.70;;;;;;;-142.57;100.00;56788.22;4992260;28;20034;-83
2023/12/14 00:31:56;;;;;;;61.78;32.50;;;;;;;-142.57;100.00;56768.00;4974728;28;20350;-79
2023/12/14 00:34:22;;;;;;;57.08;33.55;;;;;;;-142.57;100.00;56761.94;4992432;28;20121;-80
2023/12/14 00:36:47;;;;;;;59.83;33.25;;;;;;;-142.57;100.00;56755.88;4991918;28;20069;-81
2023/12/14 00:39:13;;;;;;;61.47;34.42;;;;;;;-142.57;100.00;56796.31;4991898;28;20062;-82
2023/12/14 00:41:38;;;;;;;58.22;33.00;;;;;;;-142.57;100.00;56780.13;4992022;28;20042;-78
2023/12/14 00:44:04;;;;;;;61.25;34.40;;;;;;;-142.57;100.00;56766.00;4991968;28;20588;-79
2023/12/14 00:46:29;;;;;;;60.60;34.35;;;;;;;-142.57;100.00;56788.22;4992375;28;20062;-82
2023/12/14 00:48:55;;;;;;;60.13;34.08;;;;;;;-142.57;100.00;56768.00;4991920;28;20035;-81
2023/12/14 00:51:20;;;;;;;66.15;36.40;;;;;;;-142.57;100.00;56729.59;4992078;28;20034;-80
2023/12/14 00:53:46;;;;;;;61.72;34.40;;;;;;;-142.57;100.00;56747.81;4991983;28;20069;-78
2023/12/14 00:56:12;;;;;;;61.63;35.75;;;;;;;-142.57;100.00;56747.81;4991744;28;20061;-78
2023/12/14 00:58:37;;;;;;;64.43;36.63;;;;;;;-142.57;100.00;56770.03;4991891;28;20033;-79
2023/12/14 01:01:03;;;;;;;70.38;38.60;;;;;;;-142.57;100.00;56804.38;4990582;28;20035;-76
2023/12/14 01:03:29;;;;;;;66.80;38.00;;;;;;;-142.57;100.00;56788.22;4991503;28;20038;-77
2023/12/14 01:05:54;;;;;;;62.65;35.60;;;;;;;-142.57;100.00;56816.50;4991124;28;20141;-77
2023/12/14 01:08:20;;;;;;;67.32;36.13;;;;;;;-142.57;100.00;56735.69;4988415;28;20026;-78
2023/12/14 01:10:46;;;;;;;65.28;36.55;;;;;;;-142.57;100.00;56737.69;4957736;28;20034;-78
2023/12/14 01:13:11;;;;;;;71.15;37.38;;;;;;;-142.57;100.00;56735.69;4991358;28;20046;-79
2023/12/14 01:15:37;;;;;;;66.55;37.95;;;;;;;-142.57;100.00;56747.81;4991263;28;20473;-78
2023/12/14 01:18:03;;;;;;;64.05;36.08;;;;;;;-142.57;100.00;56804.38;4992123;28;20473;-80
2023/12/14 01:20:29;;;;;;;68.53;36.50;;;;;;;-142.57;100.00;56721.53;4992011;28;20489;-83
2023/12/14 01:22:54;;;;;;;61.88;35.13;;;;;;;-142.57;100.00;56749.81;4961714;28;20185;-80
2023/12/14 01:25:20;;;;;;;62.22;34.53;;;;;;;-142.57;100.00;56739.72;4995455;28;20586;-79
2023/12/14 01:27:46;;;;;;;65.20;35.78;;;;;;;-142.57;100.00;56679.09;4977610;28;20030;-82
2023/12/14 01:30:12;;;;;;;60.03;35.15;;;;;;;-142.57;100.00;56727.59;4995640;28;20030;-84
2023/12/14 01:32:37;;;;;;;64.43;37.33;;;;;;;-142.57;100.00;56719.50;4994876;28;20086;-80
2023/12/14 01:35:04;;;;;;;63.28;35.63;;;;;;;-142.57;100.00;56729.59;4995343;28;20394;-82
2023/12/14 01:37:29;;;;;;;65.40;38.05;;;;;;;-142.57;100.00;56788.22;4995691;28;20125;-80
2023/12/14 01:39:55;;;;;;;65.38;37.53;;;;;;;-142.57;100.00;56753.88;4995300;28;20035;-81
2023/12/14 01:42:20;;;;;;;64.15;36.50;;;;;;;-142.57;100.00;56820.56;4977349;28;20034;-78
2023/12/14 01:44:46;;;;;;;71.00;39.20;;;;;;;-142.57;100.00;56814.50;4977590;28;20018;-80
2023/12/14 01:47:11;;;;;;;71.60;40.03;;;;;;;-142.57;100.00;56798.31;4995132;28;20037;-81
2023/12/14 01:49:36;;;;;;;73.32;39.63;;;;;;;-142.57;100.00;56743.75;4994652;28;20092;-80
2023/12/14 01:52:02;;;;;;;67.45;38.25;;;;;;;-142.57;100.00;56800.34;4977768;28;20061;-81
2023/12/14 01:54:28;;;;;;;86.63;40.78;;;;;;;-142.57;100.00;56780.13;4994441;28;20026;-83
2023/12/14 01:56:54;;;;;;;65.00;37.35;;;;;;;-142.57;100.00;56828.66;4994840;28;20058;-85
2023/12/14 01:59:19;;;;;;;68.65;39.17;;;;;;;-142.57;100.00;56786.19;4995085;28;20026;-82
2023/12/14 02:01:51;;;;;;;66.72;38.00;;;;;;;-142.57;100.00;56792.25;4994434;28;20037;-85
2023/12/14 02:04:16;;;;;;;90.20;46.17;;;;;;;-142.57;100.00;56806.41;4977657;28;20030;-84
2023/12/14 02:06:42;;;;;;;103.50;49.45;;;;;;;-142.57;100.00;56945.88;4995182;28;20101;-83
2023/12/14 02:09:08;;;;;;;79.53;42.28;;;;;;;-142.57;100.00;57044.91;4994532;28;20038;-80
2023/12/14 02:11:33;;;;;;;79.30;42.10;;;;;;;-142.57;100.00;57067.13;4994738;28;20437;-81
2023/12/14 02:14:04;;;;;;;73.80;40.30;;;;;;;-142.57;100.00;57091.41;4994962;28;20030;-81
2023/12/14 02:16:29;;;;;;;69.95;38.85;;;;;;;-142.57;100.00;57063.09;4986805;28;20121;-78
2023/12/14 02:18:55;;;;;;;69.05;38.80;;;;;;;-142.57;100.00;57012.56;4977253;28;20125;-84
2023/12/14 02:21:20;;;;;;;71.40;38.50;;;;;;;-142.57;100.00;57022.69;4994553;28;20030;-80
2023/12/14 02:23:46;;;;;;;73.88;38.78;;;;;;;-142.57;100.00;56970.13;4994985;28;20080;-83
2023/12/14 02:26:12;;;;;;;67.00;37.28;;;;;;;-142.57;100.00;56968.09;4976756;28;20042;-86
2023/12/14 02:28:38;;;;;;;70.90;37.80;;;;;;;-142.57;100.00;56986.28;4994742;28;20512;-82
2023/12/14 02:31:04;;;;;;;70.32;38.80;;;;;;;-142.57;100.00;57038.84;4995000;28;20034;-83
2023/12/14 02:33:29;;;;;;;68.25;36.67;;;;;;;-142.57;100.00;57012.56;4995014;28;20091;-80
2023/12/14 02:35:55;;;;;;;70.25;38.35;;;;;;;-142.57;100.00;57067.13;4977378;28;20034;-79
2023/12/14 02:38:20;;;;;;;69.18;36.78;;;;;;;-142.57;100.00;57036.81;4994796;28;20058;-83
2023/12/14 02:40:46;;;;;;;66.93;37.50;;;;;;;-142.57;100.00;57004.47;4994410;28;20033;-82
2023/12/14 02:43:12;;;;;;;69.35;37.47;;;;;;;-142.57;100.00;56953.94;4994503;28;20103;-80
2023/12/14 02:45:37;;;;;;;60.67;35.53;;;;;;;-142.57;100.00;56966.09;4976826;28;20378;-82
2023/12/14 02:48:03;;;;;;;69.15;36.65;;;;;;;-142.57;100.00;56915.56;4977208;28;20035;-85
2023/12/14 02:50:29;;;;;;;66.40;36.17;;;;;;;-142.57;100.00;56905.44;4994813;28;20030;-85
2023/12/14 02:52:54;;;;;;;67.47;36.00;;;;;;;-142.57;100.00;56875.13;4994810;28;20026;-83
2023/12/14 02:55:20;;;;;;;62.90;34.97;;;;;;;-142.57;100.00;56889.28;4993991;28;20053;-81
2023/12/14 02:57:46;;;;;;;62.40;35.88;;;;;;;-142.57;100.00;56818.53;4994477;28;20367;-83
2023/12/14 03:00:12;;;;;;;61.45;34.53;;;;;;;-142.57;100.00;56852.91;4996462;28;20064;-84
2023/12/14 03:02:38;;;;;;;61.63;33.03;;;;;;;-142.57;100.00;56852.91;4995291;28;20031;-85
2023/12/14 03:05:03;;;;;;;60.53;34.92;;;;;;;-142.57;100.00;56860.97;4996156;28;20045;-82
2023/12/14 03:07:29;;;;;;;59.65;34.33;;;;;;;-142.57;100.00;56858.97;4994158;28;20070;-80
2023/12/14 03:09:54;;;;;;;59.67;34.67;;;;;;;-142.57;100.00;56850.88;4994272;28;20483;-81
2023/12/14 03:12:21;;;;;;;66.57;35.85;;;;;;;-142.57;100.00;56883.22;4976135;28;20030;-80
2023/12/14 03:14:46;;;;;;;61.78;34.17;;;;;;;-142.57;100.00;56816.50;4976616;28;20125;-80
2023/12/14 03:17:12;;;;;;;63.53;34.88;;;;;;;-142.57;100.00;56871.09;4991646;28;20038;-85
2023/12/14 03:19:41;;;;;;;62.72;34.75;;;;;;;-142.57;100.00;56802.38;4993167;28;20066;-80
2023/12/14 03:22:08;;;;;;;62.92;34.70;;;;;;;-142.57;100.00;56792.25;4993559;28;20035;-81
2023/12/14 03:24:35;;;;;;;56.25;32.00;;;;;;;-142.57;100.00;56836.72;4993312;28;20034;-84
2023/12/14 03:27:02;;;;;;;55.65;32.13;;;;;;;-142.57;100.00;56832.69;4993566;28;20117;-83
2023/12/14 03:29:28;;;;;;;56.72;32.30;;;;;;;-142.57;100.00;56844.81;4993428;28;20037;-82
2023/12/14 03:31:55;;;;;;;56.13;33.50;;;;;;;-142.57;100.00;56836.72;4993165;28;20058;-82
2023/12/14 03:34:20;;;;;;;58.65;32.65;;;;;;;-142.57;100.00;56848.84;4992905;28;20037;-83
2023/12/14 03:36:46;;;;;;;56.38;33.13;;;;;;;-142.57;100.00;56844.81;4993541;28;20034;-80
2023/12/14 03:39:11;;;;;;;57.67;33.50;;;;;;;-142.57;100.00;56856.94;4992765;28;20042;-82
2023/12/14 03:41:37;;;;;;;63.17;35.30;;;;;;;-142.57;100.00;56840.78;4992811;28;20030;-78
2023/12/14 03:44:03;;;;;;;65.20;35.33;;;;;;;-142.57;100.00;56735.69;4992004;28;20042;-81
2023/12/14 03:46:29;;;;;;;66.20;36.97;;;;;;;-142.57;100.00;56741.75;4993069;28;20045;-83
2023/12/14 03:48:55;;;;;;;72.13;37.65;;;;;;;-142.57;100.00;56768.00;4992800;28;20038;-79
2023/12/14 03:51:20;;;;;;;64.82;37.55;;;;;;;-142.57;100.00;56745.78;4993101;28;20026;-82
2023/12/14 03:53:46;;;;;;;76.15;38.60;;;;;;;-142.57;100.00;56759.94;4992558;28;20034;-82
2023/12/14 03:56:12;;;;;;;69.13;38.92;;;;;;;-142.57;100.00;56820.56;4992787;28;20041;-81
2023/12/14 03:58:38;;;;;;;74.78;40.50;;;;;;;-142.57;100.00;56776.09;4992480;28;20034;-81
2023/12/14 04:01:04;;;;;;;69.55;38.47;;;;;;;-142.57;100.00;56794.28;4957184;28;20575;-85
2023/12/14 04:03:30;;;;;;;75.68;41.47;;;;;;;-142.57;100.00;56810.44;4992985;28;20034;-81
2023/12/14 04:05:56;;;;;;;78.88;41.13;;;;;;;-142.57;100.00;56840.78;4975397;28;20469;-83
2023/12/14 04:08:21;;;;;;;78.78;42.20;;;;;;;-142.57;100.00;56834.72;4992700;28;20037;-82
2023/12/14 04:10:49;;;;;;;84.88;43.03;;;;;;;-142.57;100.00;56828.66;4992255;28;20604;-81
2023/12/14 04:13:15;;;;;;;76.18;40.10;;;;;;;-142.57;100.00;56873.09;4993613;28;20038;-80
2023/12/14 04:15:41;;;;;;;73.85;40.60;;;;;;;-142.57;100.00;56800.34;4992498;28;20036;-81
2023/12/14 04:18:08;;;;;;;82.93;41.40;;;;;;;-142.57;100.00;56852.91;4993216;28;20022;-80
2023/12/14 04:20:33;;;;;;;87.65;43.15;;;;;;;-142.57;100.00;56832.69;4992117;28;20493;-80
2023/12/14 04:22:59;;;;;;;85.05;42.45;;;;;;;-142.57;100.00;56792.25;5000387;28;20113;-83
2023/12/14 04:25:24;;;;;;;83.63;44.42;;;;;;;-142.57;100.00;56838.75;4993300;28;20026;-82
2023/12/14 04:27:50;;;;;;;77.43;41.97;;;;;;;-142.57;100.00;56834.72;4989873;28;20556;-81
2023/12/14 04:30:15;;;;;;;85.82;43.47;;;;;;;-142.57;100.00;56820.56;4992308;28;20412;-78
2023/12/14 04:32:41;;;;;;;90.97;45.80;;;;;;;-142.57;100.00;56867.03;4992562;28;20050;-80
2023/12/14 04:35:07;;;;;;;90.75;45.58;;;;;;;-142.57;100.00;56978.22;4992012;28;20053;-79
2023/12/14 04:37:33;;;;;;;90.75;45.50;;;;;;;-142.57;100.00;56982.25;4992144;28;20030;-81
2023/12/14 04:39:58;;;;;;;86.07;45.88;;;;;;;-142.57;100.00;56937.78;4992877;28;20507;-78
2023/12/14 04:42:24;;;;;;;93.00;46.72;;;;;;;-142.57;100.00;56970.13;4988760;28;20042;-80
2023/12/14 04:44:49;;;;;;;89.60;45.95;;;;;;;-142.57;100.00;56994.38;4993520;28;20099;-78
2023/12/14 04:47:15;;;;;;;97.15;46.33;;;;;;;-142.57;100.00;56909.50;4992852;28;20081;-78
2023/12/14 04:49:40;;;;;;;88.10;44.88;;;;;;;-142.57;100.00;56907.47;4990982;28;20425;-79
2023/12/14 04:52:06;;;;;;;87.85;44.92;;;;;;;-142.57;100.00;56949.91;4991801;28;20069;-81
2023/12/14 04:54:32;;;;;;;91.20;44.65;;;;;;;-142.57;100.00;56974.16;4993092;28;20042;-80
2023/12/14 04:56:57;;;;;;;91.53;45.15;;;;;;;-142.57;100.00;56921.63;4994278;28;20046;-79
2023/12/14 04:59:23;;;;;;;88.88;45.40;;;;;;;-142.57;100.00;56895.34;4995888;28;20035;-83
2023/12/14 05:01:48;;;;;;;86.60;43.50;;;;;;;-142.57;100.00;56949.91;4995912;28;20117;-76
2023/12/14 05:04:13;;;;;;;84.93;43.30;;;;;;;-142.57;100.00;56899.38;4995498;28;20038;-84
2023/12/14 05:06:39;;;;;;;86.43;44.03;;;;;;;-142.57;100.00;56929.69;4978560;28;20408;-81
2023/12/14 05:09:06;;;;;;;86.75;42.75;;;;;;;-142.57;100.00;56883.22;4979220;28;20133;-78
2023/12/14 05:11:32;;;;;;;87.55;44.13;;;;;;;-142.57;100.00;56873.09;4993733;28;20042;-78
2023/12/14 05:13:57;;;;;;;87.40;42.90;;;;;;;-142.57;100.00;56893.31;4993906;28;20030;-76
2023/12/14 05:16:27;;;;;;;86.00;42.53;;;;;;;-142.57;100.00;56856.94;4979088;28;20075;-82
2023/12/14 05:18:56;;;;;;;86.00;43.42;;;;;;;-142.57;100.00;56820.56;4995096;28;20031;-80
2023/12/14 05:21:23;;;;;;;88.63;42.53;;;;;;;-142.57;100.00;56869.06;4994306;28;20053;-84
2023/12/14 05:23:49;;;;;;;83.47;42.08;;;;;;;-142.57;100.00;56891.28;4995418;28;20121;-83
2023/12/14 05:26:14;;;;;;;78.60;41.17;;;;;;;-142.57;100.00;56917.56;4995212;28;20398;-80
2023/12/14 05:28:40;;;;;;;86.95;43.08;;;;;;;-142.57;100.00;56917.56;4991467;28;20513;-79
2023/12/14 05:31:06;;;;;;;81.60;41.67;;;;;;;-142.57;100.00;56939.81;4980645;28;20066;-79
2023/12/14 05:33:33;;;;;;;78.20;40.28;;;;;;;-142.57;100.00;56800.34;4994982;28;20058;-80
2023/12/14 05:35:59;;;;;;;80.70;42.65;;;;;;;-142.57;100.00;56824.59;4973887;28;20142;-81
2023/12/14 05:38:24;;;;;;;81.30;41.45;;;;;;;-142.57;100.00;56832.69;5002579;28;20497;-78
2023/12/14 05:40:50;;;;;;;83.13;41.00;;;;;;;-142.57;100.00;56852.91;4982995;28;20061;-77
2023/12/14 05:43:16;;;;;;;74.22;38.67;;;;;;;-142.57;100.00;56796.31;5004526;28;20044;-75
2023/12/14 05:45:41;;;;;;;81.05;41.22;;;;;;;-142.57;100.00;56828.66;5001175;28;20485;-76
2023/12/14 05:48:07;;;;;;;82.47;41.30;;;;;;;-142.57;100.00;56832.69;5001017;28;20073;-78
2023/12/14 05:50:32;;;;;;;83.18;41.22;;;;;;;-142.57;100.00;56820.56;5004526;28;20027;-76
2023/12/14 05:52:58;;;;;;;79.13;41.38;;;;;;;-142.57;100.00;56808.44;4993635;28;20042;-78
2023/12/14 05:55:23;;;;;;;80.13;41.10;;;;;;;-142.57;100.00;56808.44;5000594;28;20108;-77
2023/12/14 05:57:49;;;;;;;79.03;40.65;;;;;;;-142.57;100.00;56834.72;5003299;28;20061;-79
2023/12/14 06:00:15;;;;;;;84.20;40.65;;;;;;;-142.57;100.00;56840.78;4998783;28;20058;-80
2023/12/14 06:02:41;;;;;;;84.78;40.92;;;;;;;-142.57;100.00;56796.31;4993349;28;20042;-79
2023/12/14 06:05:08;;;;;;;80.82;41.22;;;;;;;-142.57;100.00;56747.81;4993881;28;20045;-79
2023/12/14 06:07:34;;;;;;;80.45;39.60;;;;;;;-142.57;100.00;56836.72;4978088;28;20042;-83
2023/12/14 06:10:00;;;;;;;83.35;39.88;;;;;;;-142.57;100.00;56840.78;5004212;28;20030;-81
2023/12/14 06:12:26;;;;;;;82.57;41.35;;;;;;;-142.57;100.00;56858.97;5009061;28;20485;-79
2023/12/14 06:14:52;;;;;;;79.43;37.38;;;;;;;-142.57;100.00;56836.72;4998747;28;20053;-83
2023/12/14 06:17:18;;;;;;;79.43;38.97;;;;;;;-142.57;100.00;56804.38;4992336;28;20030;-82
2023/12/14 06:19:43;;;;;;;83.07;39.78;;;;;;;-142.57;100.00;56701.31;4995510;28;20105;-78
2023/12/14 06:22:09;;;;;;;83.95;39.78;;;;;;;-142.57;100.00;56719.50;4993164;28;20038;-82
2023/12/14 06:24:34;;;;;;;78.00;37.38;;;;;;;-142.57;100.00;56774.06;4991887;28;20370;-80
2023/12/14 06:27:00;;;;;;;85.63;38.60;;;;;;;-142.57;100.00;56697.28;4996112;28;20066;-80
2023/12/14 06:29:25;;;;;;;80.07;37.83;;;;;;;-142.57;100.00;56727.59;4995011;28;20033;-83
2023/12/14 06:31:51;;;;;;;77.28;37.47;;;;;;;-142.57;100.00;56691.22;5006907;28;20049;-84
2023/12/14 06:34:16;;;;;;;72.97;37.20;;;;;;;-142.57;100.00;56709.41;5007145;28;20038;-83
2023/12/14 06:36:45;;;;;;;83.07;38.45;;;;;;;-142.57;100.00;56747.81;5000163;28;20034;-83
2023/12/14 06:39:11;;;;;;;74.88;37.20;;;;;;;-142.57;100.00;56790.25;5001873;28;20034;-83
2023/12/14 06:41:38;;;;;;;79.50;39.22;;;;;;;-142.57;100.00;56747.81;5011276;28;20138;-82
2023/12/14 06:44:03;;;;;;;75.75;39.15;;;;;;;-142.57;100.00;56778.13;5003626;28;20057;-80
2023/12/14 06:46:29;;;;;;;82.38;38.60;;;;;;;-142.57;100.00;56796.31;5008445;28;20477;-77
2023/12/14 06:48:55;;;;;;;73.82;37.78;;;;;;;-142.57;100.00;56800.34;5002330;28;20473;-83
2023/12/14 06:51:24;;;;;;;79.35;38.33;;;;;;;-142.57;100.00;56772.06;4981899;28;20062;-85
2023/12/14 06:53:49;;;;;;;84.15;39.58;;;;;;;-142.57;100.00;56761.94;4980500;28;20046;-81
2023/12/14 06:56:15;;;;;;;78.68;38.50;;;;;;;-142.57;100.00;56770.03;4998718;28;20041;-82
2023/12/14 06:58:43;;;;;;;78.43;38.95;;;;;;;-142.57;100.00;56768.00;5007440;28;20173;-85
2023/12/14 07:01:14;;;;;;;79.43;37.58;;;;;;;-142.57;100.00;56763.97;4997806;28;20018;-86
2023/12/14 07:03:41;;;;;;;82.97;39.13;;;;;;;-142.57;100.00;56804.38;4997730;28;20046;-83
2023/12/14 07:06:07;;;;;;;76.55;37.65;;;;;;;-142.57;100.00;56786.19;4997759;28;20035;-83
2023/12/14 07:08:32;;;;;;;76.15;38.17;;;;;;;-142.57;100.00;56743.75;4996329;28;20061;-84
2023/12/14 07:10:58;;;;;;;78.72;38.20;;;;;;;-142.57;100.00;56747.81;4995574;28;20036;-85
2023/12/14 07:13:23;;;;;;;79.13;38.08;;;;;;;-142.57;100.00;56727.59;4996556;28;20018;-85
2023/12/14 07:15:49;;;;;;;80.80;37.65;;;;;;;-142.57;100.00;56755.88;4996079;28;20038;-79
2023/12/14 07:18:14;;;;;;;74.78;37.70;;;;;;;-142.57;100.00;56699.28;4978263;28;20085;-81
2023/12/14 07:20:40;;;;;;;77.40;37.58;;;;;;;-142.57;100.00;56749.81;4995091;28;20559;-80
2023/12/14 07:23:05;;;;;;;84.15;37.45;;;;;;;-142.57;100.00;56753.88;4995327;28;20042;-79
2023/12/14 07:25:31;;;;;;;71.68;36.80;;;;;;;-142.57;100.00;56747.81;4995494;28;20045;-85
2023/12/14 07:27:57;;;;;;;82.28;37.45;;;;;;;-142.57;100.00;56778.13;4996058;28;20035;-85
2023/12/14 07:30:22;;;;;;;77.38;37.65;;;;;;;-142.57;100.00;56727.59;4996797;28;20034;-83
2023/12/14 07:32:48;;;;;;;73.60;36.60;;;;;;;-142.57;100.00;56689.19;4995251;28;20089;-81
2023/12/14 07:35:13;;;;;;;75.47;36.72;;;;;;;-142.57;100.00;56719.50;4993983;28;20118;-80
2023/12/14 07:37:39;;;;;;;82.25;38.10;;;;;;;-142.57;100.00;56695.25;4978152;28;20058;-80
2023/12/14 07:40:07;;;;;;;74.18;35.45;;;;;;;-142.57;100.00;56733.66;4994756;28;20081;-84
2023/12/14 07:42:33;;;;;;;71.68;35.58;;;;;;;-142.57;100.00;56723.53;4997086;28;20037;-84
2023/12/14 07:44:59;;;;;;;77.60;34.95;;;;;;;-142.57;100.00;56735.69;4963748;28;20042;-82
2023/12/14 07:47:24;;;;;;;74.75;36.28;;;;;;;-142.57;100.00;56727.59;4994375;28;20500;-84
2023/12/14 07:49:50;;;;;;;73.65;37.45;;;;;;;-142.57;100.00;56713.44;4995539;28;20061;-82
2023/12/14 07:52:15;;;;;;;69.70;34.13;;;;;;;-142.57;100.00;56731.63;4994921;28;20081;-86
2023/12/14 07:54:41;;;;;;;67.93;33.85;;;;;;;-142.57;100.00;56664.94;4993783;28;20034;-81
2023/12/14 07:57:07;;;;;;;65.55;34.58;;;;;;;-142.57;100.00;56646.75;4946919;28;20096;-83
2023/12/14 07:59:33;;;;;;;68.65;32.83;;;;;;;-142.57;100.00;56668.97;4988734;28;20038;-80
2023/12/14 08:01:59;;;;;;;66.95;32.95;;;;;;;-142.57;100.00;56671.00;4971380;28;20041;-84
2023/12/14 08:04:24;;;;;;;71.25;36.17;;;;;;;-142.57;100.00;56695.25;4990617;28;20133;-85
2023/12/14 08:06:51;;;;;;;74.30;34.20;;;;;;;-142.57;100.00;56640.69;4989767;28;20053;-85
2023/12/14 08:09:16;;;;;;;72.60;35.92;;;;;;;-142.57;100.00;56699.28;4990165;28;20100;-84
2023/12/14 08:11:42;;;;;;;75.45;36.45;;;;;;;-142.57;100.00;56687.16;4988086;28;20523;-85
2023/12/14 08:14:07;;;;;;;75.80;36.78;;;;;;;-142.57;100.00;56707.38;4990466;28;20034;-80
2023/12/14 08:16:33;;;;;;;64.88;33.95;;;;;;;-142.57;100.00;56687.16;4988775;28;20820;-86
2023/12/14 08:18:58;;;;;;;73.07;35.38;;;;;;;-142.57;100.00;56658.88;4989658;28;20069;-84
2023/12/14 08:21:24;;;;;;;72.95;34.45;;;;;;;-142.57;100.00;56727.59;4989643;28;20038;-82
2023/12/14 08:23:49;;;;;;;70.95;35.22;;;;;;;-142.57;100.00;56683.13;4989226;28;20063;-80
2023/12/14 08:26:15;;;;;;;70.28;34.47;;;;;;;-142.57;100.00;56763.97;4990055;28;20053;-86
2023/12/14 08:28:41;;;;;;;69.15;34.65;;;;;;;-142.57;100.00;56747.81;4971311;28;20026;-85
2023/12/14 08:31:06;;;;;;;69.82;36.40;;;;;;;-142.57;100.00;56751.84;4988749;28;20552;-80
2023/12/14 08:33:32;;;;;;;71.30;35.20;;;;;;;-142.57;100.00;56743.75;4971631;28;20371;-79
2023/12/14 08:35:57;;;;;;;80.40;36.00;;;;;;;-142.57;100.00;56790.25;4991410;28;20026;-83
2023/12/14 08:38:24;;;;;;;74.50;36.03;;;;;;;-142.57;100.00;56699.28;4991050;28;20034;-85
2023/12/14 08:40:50;;;;;;;66.30;34.15;;;;;;;-142.57;100.00;56751.84;4989694;28;20040;-83
2023/12/14 08:43:17;;;;;;;63.03;32.80;;;;;;;-142.57;100.00;56729.59;4989048;28;20108;-81
2023/12/14 08:45:42;;;;;;;72.28;34.58;;;;;;;-142.57;100.00;56749.81;4988370;28;20125;-82
2023/12/14 08:48:08;;;;;;;74.63;34.72;;;;;;;-142.57;100.00;56743.75;4988527;28;20137;-80
2023/12/14 08:50:34;;;;;;;69.13;32.65;;;;;;;-142.57;100.00;56784.19;4989302;28;20040;-81
2023/12/14 08:52:59;;;;;;;61.72;31.08;;;;;;;-142.57;100.00;56741.75;4991330;28;20056;-83
2023/12/14 08:55:26;;;;;;;65.93;32.38;;;;;;;-142.57;100.00;56727.59;4993873;28;20030;-85
2023/12/14 08:57:51;;;;;;;59.53;30.48;;;;;;;-142.57;100.00;56806.41;4999625;28;20030;-80
2023/12/14 09:00:20;;;;;;;59.00;30.35;;;;;;;-142.57;100.00;56780.13;4995647;28;20374;-83
2023/12/14 09:02:45;;;;;;;58.28;29.60;;;;;;;-142.57;100.00;56691.22;4988411;28;20052;-80
2023/12/14 09:05:16;;;;;;;53.72;28.30;;;;;;;-142.57;100.00;56697.28;4993963;28;20043;-83
2023/12/14 09:07:42;;;;;;;60.90;28.95;;;;;;;-142.57;100.00;56731.63;4981006;28;20126;-83
2023/12/14 09:10:08;;;;;;;55.75;28.60;;;;;;;-142.57;100.00;56751.84;4993630;28;20464;-85
2023/12/14 09:12:34;;;;;;;64.57;28.58;;;;;;;-142.57;100.00;56705.34;4988645;28;20400;-84
2023/12/14 09:15:00;;;;;;;57.35;29.73;;;;;;;-142.57;100.00;56759.94;4975119;28;20038;-82
2023/12/14 09:17:31;;;;;;;57.63;29.65;;;;;;;-142.57;100.00;56772.06;4998909;28;20070;-79
2023/12/14 09:19:57;;;;;;;53.13;28.48;;;;;;;-142.57;100.00;56751.84;4995379;28;20042;-81
2023/12/14 09:22:22;;;;;;;53.22;27.98;;;;;;;-142.57;100.00;56776.09;5007050;28;20030;-80
2023/12/14 09:24:48;;;;;;;63.35;31.55;;;;;;;-142.57;100.00;56768.00;5003769;28;20045;-83
2023/12/14 09:27:13;;;;;;;56.42;28.38;;;;;;;-142.57;100.00;56836.72;4998389;28;20035;-82
2023/12/14 09:29:39;;;;;;;58.35;27.35;;;;;;;-142.57;100.00;56897.38;4998093;28;20102;-83
2023/12/14 09:32:04;;;;;;;54.13;26.98;;;;;;;-142.57;100.00;56840.78;4988388;28;20034;-83
2023/12/14 09:34:30;;;;;;;51.22;25.73;;;;;;;-142.57;100.00;56925.66;4988429;28;20536;-79
2023/12/14 09:36:55;;;;;;;48.83;26.02;;;;;;;-142.57;100.00;56941.81;4988804;28;20038;-82
2023/12/14 09:39:22;;;;;;;54.00;26.95;;;;;;;-142.57;100.00;56939.81;4988260;28;20044;-84
2023/12/14 09:41:50;;;;;;;53.33;27.25;;;;;;;-142.57;100.00;57044.91;4988863;28;20042;-81
2023/12/14 09:44:15;;;;;;;47.33;24.48;;;;;;;-142.57;100.00;57024.69;4992405;28;20042;-83
2023/12/14 09:46:46;;;;;;;48.22;25.40;;;;;;;-142.57;100.00;56972.16;4974738;28;20089;-81
2023/12/14 09:49:13;;;;;;;49.00;25.55;;;;;;;-142.57;100.00;56972.16;4976142;28;20113;-80
2023/12/14 09:51:40;;;;;;;45.58;24.00;;;;;;;-142.57;100.00;56988.31;4994041;28;20045;-82
2023/12/14 09:54:06;;;;;;;47.58;24.23;;;;;;;-142.57;100.00;57030.75;4993804;28;20494;-82
2023/12/14 09:56:32;;;;;;;44.75;24.23;;;;;;;-142.57;100.00;57022.69;4980491;28;20045;-82
2023/12/14 09:58:58;;;;;;;45.40;24.50;;;;;;;-142.57;100.00;57002.47;4995237;28;20065;-82
2023/12/14 10:01:27;;;;;;;44.75;23.35;;;;;;;-142.57;100.00;57030.75;4992554;28;20493;-82
2023/12/14 10:04:17;;;;;;;47.60;24.65;;;;;;;-142.57;100.00;57024.69;4994183;28;20038;-81
2023/12/14 10:06:49;;;;;;;54.20;27.17;;;;;;;-142.57;100.00;56978.22;4992323;28;20043;-85
2023/12/14 10:09:18;;;;;;;;;;;;;;;-142.57;100.00;57040.88;4993434;28;20571;-86
2023/12/14 10:11:44;;;;;;;55.35;26.17;;;;;;;-142.57;100.00;57046.94;4991426;28;19981;-87
2023/12/14 10:14:25;;;;;;;56.85;28.10;;;;;;;-142.57;100.00;56974.16;4991412;28;20073;-79
2023/12/14 10:16:51;;;;;;;54.88;27.80;;;;;;;-142.57;100.00;56990.34;4992505;28;20072;-84
2023/12/14 10:19:20;;;;;;;57.08;29.08;;;;;;;-142.57;100.00;56933.75;4990845;28;21497;-79
2023/12/14 10:21:49;;;;;;;58.15;29.92;;;;;;;-142.57;100.00;56998.41;4991250;28;20039;-83
2023/12/14 10:24:16;;;;;;;55.67;28.65;;;;;;;-142.57;100.00;56970.13;4992107;28;20468;-88
2023/12/14 10:26:41;;;;;;;56.10;28.42;;;;;;;-142.57;100.00;56970.13;4991184;28;20038;-85
2023/12/14 10:29:07;;;;;;;52.70;28.98;;;;;;;-142.57;100.00;56990.34;4991811;28;20030;-86
2023/12/14 10:31:37;;;;;;;59.20;28.80;;;;;;;-142.57;100.00;56986.28;4991427;28;20462;-84
2023/12/14 10:34:06;;;;;;;56.60;26.65;;;;;;;-142.57;100.00;56958.00;4993524;28;20061;-85
2023/12/14 10:36:33;;;;;;;50.72;26.08;;;;;;;-142.57;100.00;56986.28;4992530;28;20118;-88
2023/12/14 10:39:00;;;;;;;49.83;25.90;;;;;;;-142.57;100.00;57014.59;4994062;28;20035;-84
2023/12/14 10:41:28;;;;;;;55.17;27.02;;;;;;;-142.57;100.00;56978.22;4996551;28;20401;-88
2023/12/14 10:43:56;;;;;;;57.97;27.25;;;;;;;-142.57;100.00;56982.25;4993353;28;20050;-83
2023/12/14 10:46:23;;;;;;;54.35;28.25;;;;;;;-142.57;100.00;57022.69;4993777;28;20417;-85
2023/12/14 10:48:51;;;;;;;51.10;27.75;;;;;;;-142.57;100.00;57022.69;4994861;28;20113;-83